sensor_id;sensor_type;location;lat;lon;timestamp;temperature;humidity
76293;DHT22;67256;51.154;4.164;2023-02-28T00:01:25;5.10;55.60
76293;DHT22;67256;51.154;4.164;2023-02-28T00:03:51;5.00;55.80
76293;DHT22;67256;51.154;4.164;2023-02-28T00:06:17;5.00;55.90
76293;DHT22;67256;51.154;4.164;2023-02-28T00:08:43;5.00;55.90
76293;DHT22;67256;51.154;4.164;2023-02-28T00:11:11;5.00;55.90
76293;DHT22;67256;51.154;4.164;2023-02-28T00:13:44;4.90;56.00
76293;DHT22;67256;51.154;4.164;2023-02-28T00:16:18;5.00;56.10
76293;DHT22;67256;51.154;4.164;2023-02-28T00:18:44;4.90;56.00
76293;DHT22;67256;51.154;4.164;2023-02-28T00:21:10;5.00;55.80
76293;DHT22;67256;51.154;4.164;2023-02-28T00:23:35;4.90;55.80
76293;DHT22;67256;51.154;4.164;2023-02-28T00:26:01;4.90;55.80
76293;DHT22;67256;51.154;4.164;2023-02-28T00:28:27;4.90;55.90
76293;DHT22;67256;51.154;4.164;2023-02-28T00:30:53;4.90;55.80
76293;DHT22;67256;51.154;4.164;2023-02-28T00:33:19;4.90;55.80
76293;DHT22;67256;51.154;4.164;2023-02-28T00:35:45;4.80;56.00
76293;DHT22;67256;51.154;4.164;2023-02-28T00:38:12;4.80;56.30
76293;DHT22;67256;51.154;4.164;2023-02-28T00:40:38;4.80;56.50
76293;DHT22;67256;51.154;4.164;2023-02-28T00:43:04;4.80;56.50
76293;DHT22;67256;51.154;4.164;2023-02-28T00:45:30;4.70;56.70
76293;DHT22;67256;51.154;4.164;2023-02-28T00:47:56;4.70;56.90
76293;DHT22;67256;51.154;4.164;2023-02-28T00:50:21;4.70;56.80
76293;DHT22;67256;51.154;4.164;2023-02-28T00:52:48;4.70;56.60
76293;DHT22;67256;51.154;4.164;2023-02-28T00:55:14;4.80;56.40
76293;DHT22;67256;51.154;4.164;2023-02-28T00:57:39;4.70;56.30
76293;DHT22;67256;51.154;4.164;2023-02-28T01:00:06;4.70;56.40
76293;DHT22;67256;51.154;4.164;2023-02-28T01:02:32;4.70;56.40
76293;DHT22;67256;51.154;4.164;2023-02-28T01:04:58;4.70;56.50
76293;DHT22;67256;51.154;4.164;2023-02-28T01:07:24;4.70;56.90
76293;DHT22;67256;51.154;4.164;2023-02-28T01:09:50;4.60;57.20
76293;DHT22;67256;51.154;4.164;2023-02-28T01:12:16;4.60;56.90
76293;DHT22;67256;51.154;4.164;2023-02-28T01:14:42;4.60;56.80
76293;DHT22;67256;51.154;4.164;2023-02-28T01:17:08;4.60;56.80
76293;DHT22;67256;51.154;4.164;2023-02-28T01:19:34;4.60;57.00
76293;DHT22;67256;51.154;4.164;2023-02-28T01:22:04;4.60;57.60
76293;DHT22;67256;51.154;4.164;2023-02-28T01:24:30;4.60;57.10
76293;DHT22;67256;51.154;4.164;2023-02-28T01:26:57;4.60;57.50
76293;DHT22;67256;51.154;4.164;2023-02-28T01:29:22;4.60;57.40
76293;DHT22;67256;51.154;4.164;2023-02-28T01:31:48;4.50;57.10
76293;DHT22;67256;51.154;4.164;2023-02-28T01:34:14;4.50;57.40
76293;DHT22;67256;51.154;4.164;2023-02-28T01:36:40;4.50;57.20
76293;DHT22;67256;51.154;4.164;2023-02-28T01:39:05;4.50;57.00
76293;DHT22;67256;51.154;4.164;2023-02-28T01:41:34;4.50;57.10
76293;DHT22;67256;51.154;4.164;2023-02-28T01:47:10;4.40;57.20
76293;DHT22;67256;51.154;4.164;2023-02-28T01:49:36;4.30;57.30
76293;DHT22;67256;51.154;4.164;2023-02-28T01:52:03;4.30;57.80
76293;DHT22;67256;51.154;4.164;2023-02-28T01:54:31;4.30;57.90
76293;DHT22;67256;51.154;4.164;2023-02-28T01:57:01;4.30;58.40
76293;DHT22;67256;51.154;4.164;2023-02-28T01:59:33;4.30;58.50
76293;DHT22;67256;51.154;4.164;2023-02-28T02:02:01;4.20;58.60
76293;DHT22;67256;51.154;4.164;2023-02-28T02:04:37;4.20;58.60
76293;DHT22;67256;51.154;4.164;2023-02-28T02:07:04;4.20;58.90
76293;DHT22;67256;51.154;4.164;2023-02-28T02:09:30;4.20;59.00
76293;DHT22;67256;51.154;4.164;2023-02-28T02:11:56;4.20;59.00
76293;DHT22;67256;51.154;4.164;2023-02-28T02:17:10;4.10;59.30
76293;DHT22;67256;51.154;4.164;2023-02-28T02:25:43;4.10;59.50
76293;DHT22;67256;51.154;4.164;2023-02-28T02:36:45;4.10;59.70
76293;DHT22;67256;51.154;4.164;2023-02-28T02:45:27;4.00;59.80
76293;DHT22;67256;51.154;4.164;2023-02-28T02:47:56;4.00;59.80
76293;DHT22;67256;51.154;4.164;2023-02-28T02:50:31;3.90;60.30
76293;DHT22;67256;51.154;4.164;2023-02-28T02:53:01;3.80;60.50
76293;DHT22;67256;51.154;4.164;2023-02-28T02:55:31;3.80;60.70
76293;DHT22;67256;51.154;4.164;2023-02-28T02:58:04;3.80;60.50
76293;DHT22;67256;51.154;4.164;2023-02-28T03:00:35;3.90;60.30
76293;DHT22;67256;51.154;4.164;2023-02-28T03:03:03;3.90;60.40
76293;DHT22;67256;51.154;4.164;2023-02-28T03:05:39;4.00;60.10
76293;DHT22;67256;51.154;4.164;2023-02-28T03:08:07;3.90;60.50
76293;DHT22;67256;51.154;4.164;2023-02-28T03:10:37;4.00;60.20
76293;DHT22;67256;51.154;4.164;2023-02-28T03:28:31;3.90;60.60
76293;DHT22;67256;51.154;4.164;2023-02-28T03:31:16;4.00;60.10
76293;DHT22;67256;51.154;4.164;2023-02-28T03:34:10;4.00;59.90
76293;DHT22;67256;51.154;4.164;2023-02-28T03:36:39;4.00;60.00
76293;DHT22;67256;51.154;4.164;2023-02-28T03:39:19;4.10;59.90
76293;DHT22;67256;51.154;4.164;2023-02-28T03:42:03;4.20;59.60
76293;DHT22;67256;51.154;4.164;2023-02-28T03:44:38;4.20;59.70
76293;DHT22;67256;51.154;4.164;2023-02-28T03:49:51;4.40;59.40
76293;DHT22;67256;51.154;4.164;2023-02-28T03:52:19;4.40;59.10
76293;DHT22;67256;51.154;4.164;2023-02-28T03:54:52;4.40;59.10
76293;DHT22;67256;51.154;4.164;2023-02-28T04:00:20;4.40;59.30
76293;DHT22;67256;51.154;4.164;2023-02-28T04:02:47;4.40;59.50
76293;DHT22;67256;51.154;4.164;2023-02-28T04:05:19;4.30;60.10
76293;DHT22;67256;51.154;4.164;2023-02-28T04:07:45;4.30;60.10
76293;DHT22;67256;51.154;4.164;2023-02-28T04:10:12;4.30;60.30
76293;DHT22;67256;51.154;4.164;2023-02-28T04:12:38;4.30;60.40
76293;DHT22;67256;51.154;4.164;2023-02-28T04:15:04;4.20;60.80
76293;DHT22;67256;51.154;4.164;2023-02-28T04:17:30;4.20;60.80
76293;DHT22;67256;51.154;4.164;2023-02-28T04:19:56;4.20;60.90
76293;DHT22;67256;51.154;4.164;2023-02-28T04:22:23;4.30;60.60
76293;DHT22;67256;51.154;4.164;2023-02-28T04:24:52;4.20;60.80
76293;DHT22;67256;51.154;4.164;2023-02-28T04:27:19;4.30;60.80
76293;DHT22;67256;51.154;4.164;2023-02-28T04:29:45;4.10;61.70
76293;DHT22;67256;51.154;4.164;2023-02-28T04:32:11;4.10;61.40
76293;DHT22;67256;51.154;4.164;2023-02-28T04:34:37;4.10;61.70
76293;DHT22;67256;51.154;4.164;2023-02-28T04:37:03;4.00;61.90
76293;DHT22;67256;51.154;4.164;2023-02-28T04:39:29;3.90;62.50
76293;DHT22;67256;51.154;4.164;2023-02-28T04:41:56;3.90;62.60
76293;DHT22;67256;51.154;4.164;2023-02-28T04:44:22;3.90;62.60
76293;DHT22;67256;51.154;4.164;2023-02-28T04:46:49;4.10;62.20
76293;DHT22;67256;51.154;4.164;2023-02-28T04:49:15;4.20;61.70
76293;DHT22;67256;51.154;4.164;2023-02-28T04:51:41;4.40;61.10
76293;DHT22;67256;51.154;4.164;2023-02-28T04:54:07;4.40;61.10
76293;DHT22;67256;51.154;4.164;2023-02-28T04:56:34;4.50;61.10
76293;DHT22;67256;51.154;4.164;2023-02-28T04:59:00;4.40;61.30
76293;DHT22;67256;51.154;4.164;2023-02-28T05:01:28;4.40;61.20
76293;DHT22;67256;51.154;4.164;2023-02-28T05:03:55;4.40;61.20
76293;DHT22;67256;51.154;4.164;2023-02-28T05:06:23;4.50;61.20
76293;DHT22;67256;51.154;4.164;2023-02-28T05:08:49;4.60;61.20
76293;DHT22;67256;51.154;4.164;2023-02-28T05:11:24;4.60;60.80
76293;DHT22;67256;51.154;4.164;2023-02-28T05:13:51;4.60;60.90
76293;DHT22;67256;51.154;4.164;2023-02-28T05:16:19;4.50;61.30
76293;DHT22;67256;51.154;4.164;2023-02-28T05:18:45;4.40;61.40
76293;DHT22;67256;51.154;4.164;2023-02-28T05:21:27;4.50;61.50
76293;DHT22;67256;51.154;4.164;2023-02-28T05:23:54;4.40;61.90
76293;DHT22;67256;51.154;4.164;2023-02-28T05:26:21;4.20;62.20
76293;DHT22;67256;51.154;4.164;2023-02-28T05:28:47;4.10;62.40
76293;DHT22;67256;51.154;4.164;2023-02-28T05:31:13;4.20;62.40
76293;DHT22;67256;51.154;4.164;2023-02-28T05:33:39;4.20;62.00
76293;DHT22;67256;51.154;4.164;2023-02-28T05:36:05;4.20;61.70
76293;DHT22;67256;51.154;4.164;2023-02-28T05:38:31;4.30;61.80
76293;DHT22;67256;51.154;4.164;2023-02-28T05:40:58;4.30;61.50
76293;DHT22;67256;51.154;4.164;2023-02-28T05:43:24;4.10;62.10
76293;DHT22;67256;51.154;4.164;2023-02-28T05:45:49;4.00;62.60
76293;DHT22;67256;51.154;4.164;2023-02-28T05:48:15;4.10;62.70
76293;DHT22;67256;51.154;4.164;2023-02-28T05:50:42;4.10;62.50
76293;DHT22;67256;51.154;4.164;2023-02-28T05:53:10;4.00;62.80
76293;DHT22;67256;51.154;4.164;2023-02-28T05:55:36;4.00;63.00
76293;DHT22;67256;51.154;4.164;2023-02-28T05:58:02;3.90;62.90
76293;DHT22;67256;51.154;4.164;2023-02-28T06:00:28;3.80;62.90
76293;DHT22;67256;51.154;4.164;2023-02-28T06:02:55;3.80;63.20
76293;DHT22;67256;51.154;4.164;2023-02-28T06:05:23;3.90;63.10
76293;DHT22;67256;51.154;4.164;2023-02-28T06:07:50;3.90;63.70
76293;DHT22;67256;51.154;4.164;2023-02-28T06:10:15;4.00;62.90
76293;DHT22;67256;51.154;4.164;2023-02-28T06:12:41;4.10;62.30
76293;DHT22;67256;51.154;4.164;2023-02-28T06:15:12;4.10;62.30
76293;DHT22;67256;51.154;4.164;2023-02-28T06:17:38;4.00;62.40
76293;DHT22;67256;51.154;4.164;2023-02-28T06:20:05;4.00;62.70
76293;DHT22;67256;51.154;4.164;2023-02-28T06:22:31;4.00;62.50
76293;DHT22;67256;51.154;4.164;2023-02-28T06:24:56;4.10;62.10
76293;DHT22;67256;51.154;4.164;2023-02-28T06:27:23;4.20;61.50
76293;DHT22;67256;51.154;4.164;2023-02-28T06:29:52;4.20;61.70
76293;DHT22;67256;51.154;4.164;2023-02-28T06:32:18;4.30;61.70
76293;DHT22;67256;51.154;4.164;2023-02-28T06:34:45;4.20;61.70
76293;DHT22;67256;51.154;4.164;2023-02-28T06:37:10;4.30;61.80
76293;DHT22;67256;51.154;4.164;2023-02-28T06:39:37;4.30;61.90
76293;DHT22;67256;51.154;4.164;2023-02-28T06:42:03;4.30;61.80
76293;DHT22;67256;51.154;4.164;2023-02-28T06:44:29;4.20;61.90
76293;DHT22;67256;51.154;4.164;2023-02-28T06:47:01;4.20;62.10
76293;DHT22;67256;51.154;4.164;2023-02-28T06:49:29;4.20;62.30
76293;DHT22;67256;51.154;4.164;2023-02-28T06:51:55;4.30;62.20
76293;DHT22;67256;51.154;4.164;2023-02-28T06:54:21;4.40;61.80
76293;DHT22;67256;51.154;4.164;2023-02-28T06:56:47;4.50;61.70
76293;DHT22;67256;51.154;4.164;2023-02-28T06:59:13;4.50;61.40
76293;DHT22;67256;51.154;4.164;2023-02-28T07:01:40;4.50;61.30
76293;DHT22;67256;51.154;4.164;2023-02-28T07:04:06;4.40;61.60
76293;DHT22;67256;51.154;4.164;2023-02-28T07:06:32;4.50;61.50
76293;DHT22;67256;51.154;4.164;2023-02-28T07:08:58;4.60;61.10
76293;DHT22;67256;51.154;4.164;2023-02-28T07:11:26;4.60;61.40
76293;DHT22;67256;51.154;4.164;2023-02-28T07:13:53;4.60;61.30
76293;DHT22;67256;51.154;4.164;2023-02-28T07:16:19;4.60;61.30
76293;DHT22;67256;51.154;4.164;2023-02-28T07:18:45;4.50;61.60
76293;DHT22;67256;51.154;4.164;2023-02-28T07:21:11;4.50;61.30
76293;DHT22;67256;51.154;4.164;2023-02-28T07:23:38;4.50;61.50
76293;DHT22;67256;51.154;4.164;2023-02-28T07:26:04;4.40;61.60
76293;DHT22;67256;51.154;4.164;2023-02-28T07:28:30;4.50;61.40
76293;DHT22;67256;51.154;4.164;2023-02-28T07:30:56;4.60;61.00
76293;DHT22;67256;51.154;4.164;2023-02-28T07:33:22;4.50;61.40
76293;DHT22;67256;51.154;4.164;2023-02-28T07:35:49;4.50;61.40
76293;DHT22;67256;51.154;4.164;2023-02-28T07:38:15;4.40;61.70
76293;DHT22;67256;51.154;4.164;2023-02-28T07:40:41;4.50;61.70
76293;DHT22;67256;51.154;4.164;2023-02-28T07:43:07;4.40;61.90
76293;DHT22;67256;51.154;4.164;2023-02-28T07:45:33;4.40;62.20
76293;DHT22;67256;51.154;4.164;2023-02-28T07:48:00;4.50;61.80
76293;DHT22;67256;51.154;4.164;2023-02-28T07:50:26;4.60;61.40
76293;DHT22;67256;51.154;4.164;2023-02-28T07:52:54;4.60;61.00
76293;DHT22;67256;51.154;4.164;2023-02-28T07:55:20;4.50;61.60
76293;DHT22;67256;51.154;4.164;2023-02-28T07:57:46;4.40;61.70
76293;DHT22;67256;51.154;4.164;2023-02-28T08:00:12;4.50;61.40
76293;DHT22;67256;51.154;4.164;2023-02-28T08:02:39;4.40;61.50
76293;DHT22;67256;51.154;4.164;2023-02-28T08:05:06;4.40;61.60
76293;DHT22;67256;51.154;4.164;2023-02-28T08:07:32;4.40;61.40
76293;DHT22;67256;51.154;4.164;2023-02-28T08:09:58;4.40;61.00
76293;DHT22;67256;51.154;4.164;2023-02-28T08:12:24;4.50;61.10
76293;DHT22;67256;51.154;4.164;2023-02-28T08:14:50;4.50;61.00
76293;DHT22;67256;51.154;4.164;2023-02-28T08:17:16;4.50;61.10
76293;DHT22;67256;51.154;4.164;2023-02-28T08:19:41;4.70;60.60
76293;DHT22;67256;51.154;4.164;2023-02-28T08:22:07;4.70;60.00
76293;DHT22;67256;51.154;4.164;2023-02-28T08:24:33;4.60;59.80
76293;DHT22;67256;51.154;4.164;2023-02-28T08:26:59;4.30;60.40
76293;DHT22;67256;51.154;4.164;2023-02-28T08:29:25;4.40;60.70
76293;DHT22;67256;51.154;4.164;2023-02-28T08:31:51;4.60;60.10
76293;DHT22;67256;51.154;4.164;2023-02-28T08:34:16;4.40;58.80
76293;DHT22;67256;51.154;4.164;2023-02-28T08:36:43;4.40;59.00
76293;DHT22;67256;51.154;4.164;2023-02-28T08:39:10;4.50;58.80
76293;DHT22;67256;51.154;4.164;2023-02-28T08:41:36;4.40;58.00
76293;DHT22;67256;51.154;4.164;2023-02-28T08:44:03;4.40;58.30
76293;DHT22;67256;51.154;4.164;2023-02-28T08:46:29;4.40;57.40
76293;DHT22;67256;51.154;4.164;2023-02-28T08:48:56;4.50;57.30
76293;DHT22;67256;51.154;4.164;2023-02-28T08:51:26;4.50;55.90
76293;DHT22;67256;51.154;4.164;2023-02-28T08:53:57;4.50;55.80
76293;DHT22;67256;51.154;4.164;2023-02-28T08:56:23;4.40;54.60
76293;DHT22;67256;51.154;4.164;2023-02-28T08:58:49;4.40;54.20
76293;DHT22;67256;51.154;4.164;2023-02-28T09:01:16;4.50;54.30
76293;DHT22;67256;51.154;4.164;2023-02-28T09:03:43;4.60;54.10
76293;DHT22;67256;51.154;4.164;2023-02-28T09:06:10;4.70;53.40
76293;DHT22;67256;51.154;4.164;2023-02-28T09:08:36;4.70;52.90
76293;DHT22;67256;51.154;4.164;2023-02-28T09:11:03;4.60;50.70
76293;DHT22;67256;51.154;4.164;2023-02-28T09:13:29;4.60;50.40
76293;DHT22;67256;51.154;4.164;2023-02-28T09:16:00;4.80;49.10
76293;DHT22;67256;51.154;4.164;2023-02-28T09:18:27;4.70;49.70
76293;DHT22;67256;51.154;4.164;2023-02-28T09:20:53;4.80;49.20
76293;DHT22;67256;51.154;4.164;2023-02-28T09:23:20;4.90;48.40
76293;DHT22;67256;51.154;4.164;2023-02-28T09:25:47;4.90;48.00
76293;DHT22;67256;51.154;4.164;2023-02-28T09:28:14;4.70;45.70
76293;DHT22;67256;51.154;4.164;2023-02-28T09:30:42;4.80;46.70
76293;DHT22;67256;51.154;4.164;2023-02-28T09:33:09;4.90;45.80
76293;DHT22;67256;51.154;4.164;2023-02-28T09:35:35;4.80;43.60
76293;DHT22;67256;51.154;4.164;2023-02-28T09:38:02;4.70;43.10
76293;DHT22;67256;51.154;4.164;2023-02-28T09:40:28;4.80;44.00
76293;DHT22;67256;51.154;4.164;2023-02-28T09:42:55;4.90;43.10
76293;DHT22;67256;51.154;4.164;2023-02-28T09:45:30;5.00;43.80
76293;DHT22;67256;51.154;4.164;2023-02-28T09:48:06;5.20;44.30
76293;DHT22;67256;51.154;4.164;2023-02-28T09:50:40;5.00;42.90
76293;DHT22;67256;51.154;4.164;2023-02-28T09:53:29;4.80;44.20
76293;DHT22;67256;51.154;4.164;2023-02-28T09:56:07;4.80;44.60
76293;DHT22;67256;51.154;4.164;2023-02-28T09:59:10;4.80;45.00
76293;DHT22;67256;51.154;4.164;2023-02-28T10:04:45;4.90;45.80
76293;DHT22;67256;51.154;4.164;2023-02-28T10:09:53;5.00;46.10
76293;DHT22;67256;51.154;4.164;2023-02-28T10:12:20;4.90;45.60
76293;DHT22;67256;51.154;4.164;2023-02-28T10:14:49;5.10;46.20
76293;DHT22;67256;51.154;4.164;2023-02-28T10:17:21;5.10;46.50
76293;DHT22;67256;51.154;4.164;2023-02-28T10:20:00;5.30;46.30
76293;DHT22;67256;51.154;4.164;2023-02-28T10:22:36;5.20;45.90
76293;DHT22;67256;51.154;4.164;2023-02-28T10:25:19;5.00;46.40
76293;DHT22;67256;51.154;4.164;2023-02-28T10:27:45;5.00;47.00
76293;DHT22;67256;51.154;4.164;2023-02-28T10:30:12;5.20;47.10
76293;DHT22;67256;51.154;4.164;2023-02-28T10:32:50;5.40;45.50
76293;DHT22;67256;51.154;4.164;2023-02-28T10:35:27;5.50;45.60
76293;DHT22;67256;51.154;4.164;2023-02-28T10:37:58;5.60;44.30
76293;DHT22;67256;51.154;4.164;2023-02-28T10:40:30;5.60;44.70
76293;DHT22;67256;51.154;4.164;2023-02-28T10:43:03;5.40;43.70
76293;DHT22;67256;51.154;4.164;2023-02-28T10:45:34;5.20;44.40
76293;DHT22;67256;51.154;4.164;2023-02-28T10:56:18;5.40;43.50
76293;DHT22;67256;51.154;4.164;2023-02-28T10:58:54;5.20;44.20
76293;DHT22;67256;51.154;4.164;2023-02-28T11:03:49;5.30;44.30
76293;DHT22;67256;51.154;4.164;2023-02-28T11:06:21;5.30;43.70
76293;DHT22;67256;51.154;4.164;2023-02-28T11:08:56;5.30;44.30
76293;DHT22;67256;51.154;4.164;2023-02-28T11:11:25;5.30;42.90
76293;DHT22;67256;51.154;4.164;2023-02-28T11:13:56;5.30;43.40
76293;DHT22;67256;51.154;4.164;2023-02-28T11:16:36;5.40;41.90
76293;DHT22;67256;51.154;4.164;2023-02-28T11:19:06;5.40;42.80
76293;DHT22;67256;51.154;4.164;2023-02-28T11:21:51;5.40;43.30
76293;DHT22;67256;51.154;4.164;2023-02-28T11:24:57;5.40;41.60
76293;DHT22;67256;51.154;4.164;2023-02-28T11:29:58;5.00;40.50
76293;DHT22;67256;51.154;4.164;2023-02-28T11:32:27;4.90;41.00
76293;DHT22;67256;51.154;4.164;2023-02-28T11:35:10;4.90;41.40
76293;DHT22;67256;51.154;4.164;2023-02-28T11:37:39;5.00;41.10
76293;DHT22;67256;51.154;4.164;2023-02-28T11:40:18;4.90;40.10
76293;DHT22;67256;51.154;4.164;2023-02-28T11:45:26;4.80;39.90
76293;DHT22;67256;51.154;4.164;2023-02-28T11:48:18;4.80;40.60
76293;DHT22;67256;51.154;4.164;2023-02-28T11:59:06;5.10;38.50
76293;DHT22;67256;51.154;4.164;2023-02-28T12:23:34;5.20;37.90
76293;DHT22;67256;51.154;4.164;2023-02-28T12:28:59;5.20;38.30
76293;DHT22;67256;51.154;4.164;2023-02-28T12:31:30;5.30;38.20
76293;DHT22;67256;51.154;4.164;2023-02-28T12:34:12;5.30;38.00
76293;DHT22;67256;51.154;4.164;2023-02-28T12:36:41;5.40;38.90
76293;DHT22;67256;51.154;4.164;2023-02-28T12:41:45;5.40;36.70
76293;DHT22;67256;51.154;4.164;2023-02-28T12:44:44;5.40;36.40
76293;DHT22;67256;51.154;4.164;2023-02-28T12:47:16;5.30;37.20
76293;DHT22;67256;51.154;4.164;2023-02-28T12:55:52;5.30;37.50
76293;DHT22;67256;51.154;4.164;2023-02-28T12:58:43;5.40;37.10
76293;DHT22;67256;51.154;4.164;2023-02-28T13:09:32;5.50;37.00
76293;DHT22;67256;51.154;4.164;2023-02-28T13:11:58;5.50;37.80
76293;DHT22;67256;51.154;4.164;2023-02-28T13:14:28;5.40;37.40
76293;DHT22;67256;51.154;4.164;2023-02-28T13:24:54;5.40;37.60
76293;DHT22;67256;51.154;4.164;2023-02-28T13:27:24;5.40;37.60
76293;DHT22;67256;51.154;4.164;2023-02-28T13:29:56;5.50;37.50
76293;DHT22;67256;51.154;4.164;2023-02-28T13:39:56;5.80;37.80
76293;DHT22;67256;51.154;4.164;2023-02-28T13:47:54;5.80;37.40
76293;DHT22;67256;51.154;4.164;2023-02-28T13:50:27;5.90;37.60
76293;DHT22;67256;51.154;4.164;2023-02-28T13:58:54;5.70;37.10
76293;DHT22;67256;51.154;4.164;2023-02-28T14:07:01;5.40;37.70
76293;DHT22;67256;51.154;4.164;2023-02-28T14:09:46;5.40;38.10
76293;DHT22;67256;51.154;4.164;2023-02-28T14:12:54;5.60;38.70
76293;DHT22;67256;51.154;4.164;2023-02-28T14:15:45;5.70;38.80
76293;DHT22;67256;51.154;4.164;2023-02-28T14:21:24;5.80;38.40
76293;DHT22;67256;51.154;4.164;2023-02-28T14:32:24;5.80;38.30
76293;DHT22;67256;51.154;4.164;2023-02-28T14:34:57;5.60;38.80
76293;DHT22;67256;51.154;4.164;2023-02-28T14:37:30;5.60;39.20
76293;DHT22;67256;51.154;4.164;2023-02-28T14:39:59;5.50;38.90
76293;DHT22;67256;51.154;4.164;2023-02-28T14:42:33;5.60;39.60
76293;DHT22;67256;51.154;4.164;2023-02-28T14:44:59;5.60;38.80
76293;DHT22;67256;51.154;4.164;2023-02-28T14:47:30;5.60;39.30
76293;DHT22;67256;51.154;4.164;2023-02-28T14:49:58;5.70;39.60
76293;DHT22;67256;51.154;4.164;2023-02-28T14:52:28;5.80;38.50
76293;DHT22;67256;51.154;4.164;2023-02-28T14:55:09;5.80;38.60
76293;DHT22;67256;51.154;4.164;2023-02-28T14:57:50;5.80;38.70
76293;DHT22;67256;51.154;4.164;2023-02-28T15:00:28;5.80;39.30
76293;DHT22;67256;51.154;4.164;2023-02-28T15:02:56;5.90;38.50
76293;DHT22;67256;51.154;4.164;2023-02-28T15:05:26;5.90;38.70
76293;DHT22;67256;51.154;4.164;2023-02-28T15:08:13;6.10;38.60
76293;DHT22;67256;51.154;4.164;2023-02-28T15:10:43;6.20;39.20
76293;DHT22;67256;51.154;4.164;2023-02-28T15:13:13;6.10;38.30
76293;DHT22;67256;51.154;4.164;2023-02-28T15:15:56;5.90;39.00
76293;DHT22;67256;51.154;4.164;2023-02-28T15:18:30;6.00;39.20
76293;DHT22;67256;51.154;4.164;2023-02-28T15:21:03;6.00;39.20
76293;DHT22;67256;51.154;4.164;2023-02-28T15:23:31;6.00;40.00
76293;DHT22;67256;51.154;4.164;2023-02-28T15:25:57;6.10;40.00
76293;DHT22;67256;51.154;4.164;2023-02-28T15:28:24;6.00;38.60
76293;DHT22;67256;51.154;4.164;2023-02-28T15:31:00;6.00;39.00
76293;DHT22;67256;51.154;4.164;2023-02-28T15:33:31;5.90;39.40
76293;DHT22;67256;51.154;4.164;2023-02-28T15:38:36;5.90;39.80
76293;DHT22;67256;51.154;4.164;2023-02-28T15:41:02;5.90;39.10
76293;DHT22;67256;51.154;4.164;2023-02-28T15:43:35;5.80;39.20
76293;DHT22;67256;51.154;4.164;2023-02-28T15:46:12;5.80;39.90
76293;DHT22;67256;51.154;4.164;2023-02-28T15:48:55;5.90;39.50
76293;DHT22;67256;51.154;4.164;2023-02-28T15:51:35;5.90;40.40
76293;DHT22;67256;51.154;4.164;2023-02-28T15:54:05;6.00;40.40
76293;DHT22;67256;51.154;4.164;2023-02-28T15:56:38;5.90;39.50
76293;DHT22;67256;51.154;4.164;2023-02-28T15:59:07;5.80;40.00
76293;DHT22;67256;51.154;4.164;2023-02-28T16:01:38;5.90;39.90
76293;DHT22;67256;51.154;4.164;2023-02-28T16:04:12;5.80;39.50
76293;DHT22;67256;51.154;4.164;2023-02-28T16:09:12;5.70;40.50
76293;DHT22;67256;51.154;4.164;2023-02-28T16:11:42;5.60;40.60
76293;DHT22;67256;51.154;4.164;2023-02-28T16:14:20;5.80;41.10
76293;DHT22;67256;51.154;4.164;2023-02-28T16:16:51;5.80;40.40
76293;DHT22;67256;51.154;4.164;2023-02-28T16:19:18;5.80;40.80
76293;DHT22;67256;51.154;4.164;2023-02-28T16:21:44;5.70;41.20
76293;DHT22;67256;51.154;4.164;2023-02-28T16:24:10;5.70;41.20
76293;DHT22;67256;51.154;4.164;2023-02-28T16:26:36;5.60;41.20
76293;DHT22;67256;51.154;4.164;2023-02-28T16:29:05;5.70;41.30
76293;DHT22;67256;51.154;4.164;2023-02-28T16:31:35;5.90;41.20
76293;DHT22;67256;51.154;4.164;2023-02-28T16:34:02;6.00;40.80
76293;DHT22;67256;51.154;4.164;2023-02-28T16:36:29;6.10;40.60
76293;DHT22;67256;51.154;4.164;2023-02-28T16:38:55;6.10;40.60
76293;DHT22;67256;51.154;4.164;2023-02-28T16:41:25;6.20;40.80
76293;DHT22;67256;51.154;4.164;2023-02-28T16:43:55;6.30;40.80
76293;DHT22;67256;51.154;4.164;2023-02-28T16:46:30;6.30;40.90
76293;DHT22;67256;51.154;4.164;2023-02-28T16:48:56;6.20;41.20
76293;DHT22;67256;51.154;4.164;2023-02-28T16:51:22;6.10;41.00
76293;DHT22;67256;51.154;4.164;2023-02-28T16:53:48;6.20;41.10
76293;DHT22;67256;51.154;4.164;2023-02-28T16:56:24;6.30;41.20
76293;DHT22;67256;51.154;4.164;2023-02-28T16:58:51;6.20;41.40
76293;DHT22;67256;51.154;4.164;2023-02-28T17:01:17;6.10;41.20
76293;DHT22;67256;51.154;4.164;2023-02-28T17:03:47;6.00;40.90
76293;DHT22;67256;51.154;4.164;2023-02-28T17:06:24;6.00;41.40
76293;DHT22;67256;51.154;4.164;2023-02-28T17:08:52;6.00;41.40
76293;DHT22;67256;51.154;4.164;2023-02-28T17:11:18;6.00;41.40
76293;DHT22;67256;51.154;4.164;2023-02-28T17:13:44;6.10;41.10
76293;DHT22;67256;51.154;4.164;2023-02-28T17:16:22;6.20;41.00
76293;DHT22;67256;51.154;4.164;2023-02-28T17:18:50;6.10;41.20
76293;DHT22;67256;51.154;4.164;2023-02-28T17:21:16;6.00;41.40
76293;DHT22;67256;51.154;4.164;2023-02-28T17:23:43;6.00;41.30
76293;DHT22;67256;51.154;4.164;2023-02-28T17:26:13;6.00;41.40
76293;DHT22;67256;51.154;4.164;2023-02-28T17:28:40;5.90;41.60
76293;DHT22;67256;51.154;4.164;2023-02-28T17:31:05;5.80;41.70
76293;DHT22;67256;51.154;4.164;2023-02-28T17:33:31;5.90;41.70
76293;DHT22;67256;51.154;4.164;2023-02-28T17:35:57;5.90;41.70
76293;DHT22;67256;51.154;4.164;2023-02-28T17:38:23;6.00;41.70
76293;DHT22;67256;51.154;4.164;2023-02-28T17:40:48;6.00;41.50
76293;DHT22;67256;51.154;4.164;2023-02-28T17:43:14;6.10;41.50
76293;DHT22;67256;51.154;4.164;2023-02-28T17:45:40;6.10;41.40
76293;DHT22;67256;51.154;4.164;2023-02-28T17:48:08;6.10;41.50
76293;DHT22;67256;51.154;4.164;2023-02-28T17:50:34;6.10;41.50
76293;DHT22;67256;51.154;4.164;2023-02-28T17:53:00;6.10;41.40
76293;DHT22;67256;51.154;4.164;2023-02-28T17:55:27;6.10;41.40
76293;DHT22;67256;51.154;4.164;2023-02-28T17:57:52;6.10;41.50
76293;DHT22;67256;51.154;4.164;2023-02-28T18:00:19;6.10;41.50
76293;DHT22;67256;51.154;4.164;2023-02-28T18:02:45;6.10;41.80
76293;DHT22;67256;51.154;4.164;2023-02-28T18:05:11;6.00;41.60
76293;DHT22;67256;51.154;4.164;2023-02-28T18:07:37;5.90;41.90
76293;DHT22;67256;51.154;4.164;2023-02-28T18:10:05;5.90;42.10
76293;DHT22;67256;51.154;4.164;2023-02-28T18:12:31;6.00;42.10
76293;DHT22;67256;51.154;4.164;2023-02-28T18:14:57;6.00;42.00
76293;DHT22;67256;51.154;4.164;2023-02-28T18:17:23;6.00;42.00
76293;DHT22;67256;51.154;4.164;2023-02-28T18:19:49;5.90;42.10
76293;DHT22;67256;51.154;4.164;2023-02-28T18:22:15;5.80;42.20
76293;DHT22;67256;51.154;4.164;2023-02-28T18:24:41;5.70;42.50
76293;DHT22;67256;51.154;4.164;2023-02-28T18:27:06;5.70;42.50
76293;DHT22;67256;51.154;4.164;2023-02-28T18:29:32;5.70;42.80
76293;DHT22;67256;51.154;4.164;2023-02-28T18:31:58;5.60;43.00
76293;DHT22;67256;51.154;4.164;2023-02-28T18:34:27;5.50;43.30
76293;DHT22;67256;51.154;4.164;2023-02-28T18:36:52;5.60;43.20
76293;DHT22;67256;51.154;4.164;2023-02-28T18:39:19;5.50;43.40
76293;DHT22;67256;51.154;4.164;2023-02-28T18:41:45;5.60;43.20
76293;DHT22;67256;51.154;4.164;2023-02-28T18:44:11;5.70;43.00
76293;DHT22;67256;51.154;4.164;2023-02-28T18:46:38;5.60;43.30